EVERETT DAM ON PISCATAOUOG R: From 06/04/2019 02:00 to 06/18/2019 17:00

Date LAKE ELEVATION [FT] PRECIPITATION INCREMENT [IN] RESERVOIR RELEASES [CFS] TAILWATER STAGE [FT]
06/18/2019 08:00 -- 0.00 -- --
06/18/2019 07:00 340.91 0.00 -- 5.44
06/18/2019 06:00 340.91 0.00 -- 5.45
06/18/2019 05:00 340.91 0.00 -- 5.45
06/18/2019 04:00 340.91 0.00 -- 5.45
06/18/2019 03:00 340.91 0.00 -- 5.46
06/18/2019 02:00 340.91 0.00 -- 5.46
06/18/2019 01:00 340.94 0.00 -- 5.46
06/18/2019 00:00 340.94 0.00 -- 5.47
06/17/2019 23:00 340.94 0.00 -- 5.47
06/17/2019 22:00 340.94 0.00 -- 5.47
06/17/2019 21:00 340.94 0.00 -- 5.47
06/17/2019 20:00 340.94 0.00 -- 5.47
06/17/2019 19:00 340.94 0.00 87.3 5.48
06/17/2019 18:00 340.94 0.00 85.4 5.47
06/17/2019 17:00 340.94 0.00 87.3 5.48
06/17/2019 16:00 340.94 0.00 87.3 5.48
06/17/2019 15:00 340.94 0.00 85.4 5.47
06/17/2019 14:00 340.94 0.00 87.3 5.48
06/17/2019 13:00 340.94 0.00 87.3 5.48
06/17/2019 12:00 340.94 0.00 87.3 5.48
06/17/2019 11:00 340.94 0.00 87.3 5.48
06/17/2019 10:00 340.94 0.00 87.3 5.48
06/17/2019 09:00 340.94 0.00 87.3 5.48
06/17/2019 08:00 340.94 0.00 87.3 5.48
06/17/2019 07:00 340.94 0.00 87.3 5.48
06/17/2019 06:00 340.94 0.00 87.3 5.48
06/17/2019 05:00 340.94 0.00 87.3 5.48
06/17/2019 04:00 340.94 0.00 87.3 5.48
06/17/2019 03:00 340.94 0.00 87.3 5.48
06/17/2019 02:00 340.94 0.00 87.3 5.48
06/17/2019 01:00 340.94 0.00 85.4 5.47
06/17/2019 00:00 340.94 0.00 85.4 5.47
06/16/2019 23:00 340.94 0.00 85.4 5.47
06/16/2019 22:00 340.94 0.00 85.4 5.47
06/16/2019 21:00 340.94 0.00 85.4 5.47
06/16/2019 20:00 340.94 0.00 83.6 5.46
06/16/2019 19:00 340.91 0.01 83.6 5.46
06/16/2019 18:00 340.91 0.00 83.6 5.46
06/16/2019 17:00 340.91 0.00 81.8 5.45
06/16/2019 16:00 340.91 0.00 81.8 5.45
06/16/2019 15:00 340.91 0.00 81.8 5.45
06/16/2019 14:00 340.91 0.00 81.8 5.45
06/16/2019 13:00 340.91 0.01 80.0 5.44
06/16/2019 12:00 340.91 0.04 81.8 5.45
06/16/2019 11:00 340.91 0.04 81.8 5.45
06/16/2019 10:00 340.91 0.05 81.8 5.45
06/16/2019 09:00 340.91 0.07 80.0 5.44
06/16/2019 08:00 340.91 0.03 80.0 5.44
06/16/2019 07:00 340.91 0.01 80.0 5.44
06/16/2019 06:00 340.91 0.00 80.0 5.44
06/16/2019 05:00 340.91 0.00 81.8 5.45
06/16/2019 04:00 340.91 0.00 81.8 5.45
06/16/2019 03:00 340.91 0.00 83.6 5.46
06/16/2019 02:00 340.94 0.00 83.6 5.46
06/16/2019 01:00 340.94 0.00 83.6 5.46
06/16/2019 00:00 340.94 0.00 83.6 5.46
06/15/2019 23:00 340.94 0.00 85.4 5.47
06/15/2019 22:00 340.94 0.00 87.3 5.48
06/15/2019 21:00 340.97 0.00 87.3 5.48
06/15/2019 20:00 340.97 0.00 87.3 5.48
06/15/2019 19:00 340.97 0.00 89.3 5.49
06/15/2019 18:00 340.97 0.00 89.3 5.49
06/15/2019 17:00 340.97 0.00 91.2 5.50
06/15/2019 16:00 340.97 0.00 91.2 5.50
06/15/2019 15:00 340.97 0.00 91.2 5.50
06/15/2019 14:00 340.97 0.00 91.2 5.50
06/15/2019 13:00 341.00 0.00 93.2 5.51
06/15/2019 12:00 340.97 0.00 93.2 5.51
06/15/2019 11:00 341.00 0.00 93.2 5.51
06/15/2019 10:00 341.00 0.00 97.2 5.53
06/15/2019 09:00 341.00 0.00 97.2 5.53
06/15/2019 08:00 341.03 0.00 99.2 5.54
06/15/2019 07:00 341.03 0.00 99.2 5.54
06/15/2019 06:00 341.03 0.00 99.2 5.54
06/15/2019 05:00 341.03 0.00 101.2 5.55
06/15/2019 04:00 341.03 0.00 101.2 5.55
06/15/2019 03:00 341.03 0.00 103.3 5.56
06/15/2019 02:00 341.06 0.00 103.3 5.56
06/15/2019 01:00 341.06 0.00 103.3 5.56
06/15/2019 00:00 341.06 0.00 105.4 5.57
06/14/2019 23:00 341.06 0.00 105.4 5.57
06/14/2019 22:00 341.06 0.00 107.5 5.58
06/14/2019 21:00 341.09 0.00 107.5 5.58
06/14/2019 20:00 341.09 0.00 107.5 5.58
06/14/2019 19:00 341.09 0.00 109.6 5.59
06/14/2019 18:00 341.09 0.00 109.6 5.59
06/14/2019 17:00 341.09 0.00 109.6 5.59
06/14/2019 16:00 341.09 0.00 109.6 5.59
06/14/2019 15:00 341.09 0.00 109.6 5.59
06/14/2019 14:00 341.09 0.00 109.6 5.59
06/14/2019 13:00 341.09 0.00 109.6 5.59
06/14/2019 12:00 341.09 0.00 109.6 5.59
06/14/2019 11:00 341.09 0.00 107.5 5.58
06/14/2019 10:00 341.09 0.00 109.6 5.59
06/14/2019 09:00 341.09 0.00 109.6 5.59
06/14/2019 08:00 341.09 0.00 109.6 5.59
06/14/2019 07:00 341.09 0.00 109.6 5.59
06/14/2019 06:00 341.09 0.00 109.6 5.59
06/14/2019 05:00 341.09 0.00 109.6 5.59
06/14/2019 04:00 341.09 0.00 107.5 5.58
06/14/2019 03:00 341.09 0.00 107.5 5.58
06/14/2019 02:00 341.06 0.00 107.5 5.58
06/14/2019 01:00 341.06 0.00 107.5 5.58
06/14/2019 00:00 341.06 0.00 105.4 5.57
06/13/2019 23:00 341.06 0.00 105.4 5.57
06/13/2019 22:00 341.06 0.00 103.3 5.56
06/13/2019 21:00 341.03 0.00 103.3 5.56
06/13/2019 20:00 341.03 0.00 101.2 5.55
06/13/2019 19:00 341.03 0.00 99.2 5.54
06/13/2019 18:00 341.03 0.00 99.2 5.54
06/13/2019 17:00 341.03 0.00 99.2 5.54
06/13/2019 16:00 341.03 0.00 97.2 5.53
06/13/2019 15:00 341.00 0.00 97.2 5.53
06/13/2019 14:00 341.00 0.01 97.2 5.53
06/13/2019 13:00 341.00 0.00 97.2 5.53
06/13/2019 12:00 341.00 0.11 97.2 5.53
06/13/2019 11:00 340.97 0.02 93.2 5.51
06/13/2019 10:00 341.00 0.03 93.2 5.51
06/13/2019 09:00 340.97 0.04 93.2 5.51
06/13/2019 08:00 340.97 0.01 93.2 5.51
06/13/2019 07:00 341.00 0.00 95.2 5.52
06/13/2019 06:00 341.00 0.02 95.2 5.52
06/13/2019 05:00 341.00 0.00 95.2 5.52
06/13/2019 04:00 341.00 0.00 97.2 5.53
06/13/2019 03:00 341.03 0.00 97.2 5.53
06/13/2019 02:00 341.03 0.00 99.2 5.54
06/13/2019 01:00 341.03 0.00 101.2 5.55
06/13/2019 00:00 341.03 0.00 101.2 5.55
06/12/2019 23:00 341.03 0.00 101.2 5.55
06/12/2019 22:00 341.06 0.00 103.3 5.56
06/12/2019 21:00 341.06 0.00 103.3 5.56
06/12/2019 20:00 341.06 0.00 105.4 5.57
06/12/2019 19:00 341.06 0.00 105.4 5.57
06/12/2019 18:00 341.06 0.00 105.4 5.57
06/12/2019 17:00 341.06 0.00 107.5 5.58
06/12/2019 16:00 341.06 0.00 107.5 5.58
06/12/2019 15:00 341.09 0.00 107.5 5.58
06/12/2019 14:00 341.09 0.00 107.5 5.58
06/12/2019 13:00 341.09 0.00 107.5 5.58
06/12/2019 12:00 341.09 0.00 109.6 5.59
06/12/2019 11:00 341.09 0.00 109.6 5.59
06/12/2019 10:00 341.09 0.00 111.8 5.60
06/12/2019 09:00 341.09 0.00 111.8 5.60
06/12/2019 08:00 341.09 0.00 111.8 5.60
06/12/2019 07:00 341.09 0.00 113.9 5.61
06/12/2019 06:00 341.12 0.00 113.9 5.61
06/12/2019 05:00 341.12 0.00 113.9 5.61
06/12/2019 04:00 341.12 0.00 -- --
06/12/2019 03:00 341.12 0.00 116.1 5.62
06/12/2019 02:00 341.12 0.00 116.1 5.62
06/12/2019 01:00 341.12 0.00 116.1 5.62
06/12/2019 00:00 341.12 0.00 116.1 5.62
06/11/2019 23:00 341.12 0.00 116.1 5.62
06/11/2019 22:00 341.12 0.00 116.1 5.62
06/11/2019 21:00 341.12 0.00 113.9 5.61
06/11/2019 20:00 341.12 0.00 113.9 5.61
06/11/2019 19:00 341.12 0.00 113.9 5.61
06/11/2019 18:00 341.12 0.00 113.9 5.61
06/11/2019 17:00 341.09 0.00 111.8 5.60
06/11/2019 16:00 341.09 0.00 109.6 5.59
06/11/2019 15:00 341.09 0.00 109.6 5.59
06/11/2019 14:00 341.09 0.00 107.5 5.58
06/11/2019 13:00 341.06 0.00 105.4 5.57
06/11/2019 12:00 341.06 0.00 101.2 5.55
06/11/2019 11:00 341.03 0.00 103.3 5.56
06/11/2019 10:00 341.03 0.00 99.2 5.54
06/11/2019 09:00 341.03 0.00 97.2 5.53
06/11/2019 08:00 341.00 0.00 95.2 5.52
06/11/2019 07:00 340.97 0.00 -- --
06/11/2019 06:00 340.97 0.00 89.3 5.49
06/11/2019 05:00 340.97 0.00 89.3 5.49
06/11/2019 04:00 340.94 0.02 87.3 5.48
06/11/2019 03:00 340.94 0.19 87.3 5.48
06/11/2019 02:00 340.94 0.09 83.6 5.46
06/11/2019 01:00 340.91 0.04 83.6 5.46
06/11/2019 00:00 340.91 0.01 83.6 5.46
06/10/2019 23:00 340.94 0.00 85.4 5.47
06/10/2019 22:00 340.94 0.08 85.4 5.47
06/10/2019 21:00 340.94 0.02 85.4 5.47
06/10/2019 20:00 340.94 0.00 85.4 5.47
06/10/2019 19:00 340.94 0.00 85.4 5.47
06/10/2019 18:00 340.94 0.00 87.3 5.48
06/10/2019 17:00 340.94 0.00 87.3 5.48
06/10/2019 16:00 340.97 0.00 87.3 5.48
06/10/2019 15:00 340.97 0.00 89.3 5.49
06/10/2019 14:00 340.97 0.00 89.3 5.49
06/10/2019 13:00 340.97 0.00 91.2 5.50
06/10/2019 12:00 340.97 0.00 93.2 5.51
06/10/2019 11:00 340.97 0.00 93.2 5.51
06/10/2019 10:00 341.00 0.00 95.2 5.52
06/10/2019 09:00 341.00 0.00 95.2 5.52
06/10/2019 08:00 341.00 0.00 97.2 5.53
06/10/2019 07:00 341.03 0.00 97.2 5.53
06/10/2019 06:00 341.03 0.00 101.2 5.55
06/10/2019 05:00 341.03 0.00 103.3 5.56
06/10/2019 04:00 341.06 0.00 103.3 5.56
06/10/2019 03:00 341.06 0.00 105.4 5.57
06/10/2019 02:00 341.06 0.00 107.5 5.58
06/10/2019 01:00 341.06 0.00 107.5 5.58
06/10/2019 00:00 341.09 0.00 109.6 5.59
06/09/2019 23:00 341.09 0.00 109.6 5.59
06/09/2019 22:00 341.09 0.00 111.8 5.60
06/09/2019 21:00 341.09 0.00 111.8 5.60
06/09/2019 20:00 341.12 0.00 113.9 5.61
06/09/2019 19:00 341.12 0.00 116.1 5.62
06/09/2019 18:00 341.12 0.00 116.1 5.62
06/09/2019 17:00 341.15 0.00 118.3 5.63
06/09/2019 16:00 341.15 0.00 118.3 5.63
06/09/2019 15:00 341.15 0.00 120.6 5.64
06/09/2019 14:00 341.18 0.00 122.8 5.65
06/09/2019 13:00 341.18 0.00 125.1 5.66
06/09/2019 12:00 341.18 0.00 125.1 5.66
06/09/2019 11:00 341.21 0.00 127.3 5.67
06/09/2019 10:00 341.21 0.00 132.0 5.69
06/09/2019 09:00 341.24 0.00 132.0 5.69
06/09/2019 08:00 341.24 0.00 139.1 5.72
06/09/2019 07:00 341.27 0.00 139.1 5.72
06/09/2019 06:00 341.27 0.00 141.5 5.73
06/09/2019 05:00 341.30 0.00 143.9 5.74
06/09/2019 04:00 341.30 0.00 146.4 5.75
06/09/2019 03:00 341.33 0.00 151.3 5.77
06/09/2019 02:00 341.33 0.00 151.3 5.77
06/09/2019 01:00 341.36 0.00 153.8 5.78
06/09/2019 00:00 341.36 0.00 156.3 5.79
06/08/2019 23:00 341.39 0.00 158.9 5.80
06/08/2019 22:00 341.39 0.00 161.4 5.81
06/08/2019 21:00 341.42 0.00 166.6 5.83
06/08/2019 20:00 341.45 0.00 169.3 5.84
06/08/2019 19:00 341.45 0.00 169.3 5.84
06/08/2019 18:00 341.45 0.00 171.9 5.85
06/08/2019 17:00 341.48 0.00 177.3 5.87
06/08/2019 16:00 341.51 0.00 179.9 5.88
06/08/2019 15:00 341.51 0.00 182.7 5.89
06/08/2019 14:00 341.54 0.00 185.4 5.90
06/08/2019 13:00 341.57 0.00 190.9 5.92
06/08/2019 12:00 341.57 0.00 190.9 5.92
06/08/2019 11:00 341.57 0.00 199.4 5.95
06/08/2019 10:00 341.60 0.00 199.4 5.95
06/08/2019 09:00 341.63 0.00 205.2 5.97
06/08/2019 08:00 341.63 0.00 208.1 5.98
06/08/2019 07:00 341.66 0.00 213.9 6.00
06/08/2019 06:00 341.69 0.00 216.9 6.01
06/08/2019 05:00 341.72 0.00 219.8 6.02
06/08/2019 04:00 341.75 0.00 225.9 6.04
06/08/2019 03:00 341.75 0.00 231.9 6.06
06/08/2019 02:00 341.78 0.00 235.0 6.07
06/08/2019 01:00 341.81 0.00 238.1 6.08
06/08/2019 00:00 341.84 0.00 241.2 6.09
06/07/2019 23:00 341.87 0.00 247.5 6.11
06/07/2019 22:00 341.87 0.00 253.9 6.13
06/07/2019 21:00 341.90 0.00 257.1 6.14
06/07/2019 20:00 341.93 0.00 263.6 6.16
06/07/2019 19:00 341.96 0.00 -- --
06/07/2019 18:00 341.96 0.00 270.1 6.18
06/07/2019 17:00 341.99 0.00 280.1 6.21
06/07/2019 16:00 342.02 0.00 280.1 6.21
06/07/2019 15:00 342.02 0.00 286.9 6.23
06/07/2019 14:00 342.05 0.00 290.3 6.24
06/07/2019 13:00 342.08 0.00 297.1 6.26
06/07/2019 12:00 342.11 0.00 300.6 6.27
06/07/2019 11:00 342.11 0.00 307.6 6.29
06/07/2019 10:00 342.14 0.00 311.1 6.30
06/07/2019 09:00 342.17 0.00 318.2 6.32
06/07/2019 08:00 342.17 0.00 325.4 6.34
06/07/2019 07:00 342.20 0.00 329.0 6.35
06/07/2019 06:00 342.23 0.00 336.3 6.37
06/07/2019 05:00 342.23 0.00 340.0 6.38
06/07/2019 04:00 342.26 0.00 347.4 6.40
06/07/2019 03:00 342.29 0.00 354.9 6.42
06/07/2019 02:00 342.32 0.00 362.4 6.44
06/07/2019 01:00 342.32 0.00 366.2 6.45
06/07/2019 00:00 342.35 0.00 373.9 6.47
06/06/2019 23:00 342.38 0.00 377.8 6.48
06/06/2019 22:00 342.38 0.00 377.8 6.48
06/06/2019 21:00 342.41 0.00 381.7 6.49
06/06/2019 20:00 342.41 0.00 385.6 6.50
06/06/2019 19:00 342.44 0.00 385.6 6.50
06/06/2019 18:00 342.44 0.00 385.6 6.50
06/06/2019 17:00 342.44 0.00 385.6 6.50
06/06/2019 16:00 342.47 0.00 389.5 6.51
06/06/2019 15:00 342.47 0.00 385.6 6.50
06/06/2019 14:00 342.47 0.00 385.6 6.50
06/06/2019 13:00 342.44 0.00 389.5 6.51
06/06/2019 12:00 342.44 0.00 381.7 6.49
06/06/2019 11:00 342.41 0.00 244.4 6.10
06/06/2019 10:00 342.29 0.00 244.4 6.10
06/06/2019 09:00 342.20 0.00 241.2 6.09
06/06/2019 08:00 342.08 0.00 238.1 6.08
06/06/2019 07:00 341.96 0.00 235.0 6.07
06/06/2019 06:00 341.84 0.00 231.9 6.06
06/06/2019 05:00 341.69 0.00 216.9 6.01
06/06/2019 04:00 341.54 0.00 188.2 5.91
06/06/2019 03:00 341.39 0.00 161.4 5.81
06/06/2019 02:00 341.24 0.08 129.7 5.68
06/06/2019 01:00 341.12 0.07 116.1 5.62
06/06/2019 00:00 341.03 0.13 101.2 5.55
06/05/2019 23:00 340.97 0.59 93.2 5.51
06/05/2019 22:00 340.91 0.05 -- --
06/05/2019 21:00 340.88 0.06 -- --
06/05/2019 20:00 340.88 0.16 76.5 5.42
06/05/2019 19:00 340.88 0.12 -- --
06/05/2019 18:00 340.88 0.00 -- --
06/05/2019 17:00 340.88 0.00 74.8 5.41
06/05/2019 16:00 340.88 0.00 76.5 5.42
06/05/2019 15:00 340.88 0.00 76.5 5.42
06/05/2019 14:00 340.88 0.00 76.5 5.42
06/05/2019 13:00 340.88 0.00 76.5 5.42
06/05/2019 12:00 340.88 0.00 78.3 5.43
06/05/2019 11:00 340.88 0.00 78.3 5.43
06/05/2019 10:00 340.91 0.00 80.0 5.44
06/05/2019 09:00 340.91 0.00 80.0 5.44
06/05/2019 08:00 340.91 0.00 81.8 5.45
06/05/2019 07:00 340.91 0.00 81.8 5.45
06/05/2019 06:00 340.91 0.00 83.6 5.46
06/05/2019 05:00 340.94 0.00 85.4 5.47
06/05/2019 04:00 340.94 0.00 85.4 5.47
06/05/2019 03:00 340.94 0.00 87.3 5.48
06/05/2019 02:00 340.97 0.00 89.3 5.49
06/05/2019 01:00 340.97 0.00 89.3 5.49
06/05/2019 00:00 340.97 0.00 89.3 5.49
06/04/2019 23:00 340.97 0.00 93.2 5.51
06/04/2019 22:00 340.97 0.00 91.2 5.50
06/04/2019 21:00 341.00 0.01 93.2 5.51
06/04/2019 20:00 341.00 0.00 95.2 5.52
06/04/2019 19:00 341.00 0.00 95.2 5.52
06/04/2019 18:00 341.00 0.00 97.2 5.53
06/04/2019 17:00 341.00 0.00 97.2 5.53
06/04/2019 16:00 341.03 0.00 99.2 5.54
06/04/2019 15:00 341.03 0.00 99.2 5.54
06/04/2019 14:00 341.03 0.00 99.2 5.54
06/04/2019 13:00 341.03 0.00 101.2 5.55
06/04/2019 12:00 -- -- -- --
06/04/2019 11:00 -- -- -- --
06/04/2019 10:00 -- -- -- --
06/04/2019 09:00 -- -- -- --
06/04/2019 08:00 -- -- -- --
06/04/2019 07:00 -- -- -- --
06/04/2019 06:00 -- -- -- --
06/04/2019 05:00 -- -- -- --
06/04/2019 04:00 -- -- -- --
06/04/2019 03:00 -- -- -- --
06/04/2019 02:00 -- -- -- --